Time;durP1;ratioP1;P1;durP2;ratioP2;P2;SDS_P1;SDS_P2;PMS_P1;PMS_P2;Temp;Humidity;BMP_temperature;BMP_pressure;BME280_temperature;BME280_humidity;BME280_pressure;Samples;Min_cycle;Max_cycle;Signal;HPM_P1;HPM_P2
2024/04/23 00:01:48;;;;;;;;;;;;;;;12.66;100.00;98851.44;5420990;26;19929;-83
2024/04/23 00:04:14;;;;;;;;;;;;;;;12.67;100.00;98852.97;5442811;26;19958;-85
2024/04/23 00:06:39;;;;;;;;;;;;;;;12.57;100.00;98858.44;5419061;26;19974;-83
2024/04/23 00:09:04;;;;;;;;;;;;;;;12.61;100.00;98841.69;5416581;26;20605;-83
2024/04/23 00:11:30;;;;;;;;;;;;;;;12.66;100.00;98829.28;5400189;26;19936;-84
2024/04/23 00:13:55;;;;;;;;;;;;;;;12.66;100.00;98834.81;5418478;26;19929;-84
2024/04/23 00:16:21;;;;;;;;;;;;;;;12.67;100.00;98839.91;5450487;26;19929;-85
2024/04/23 00:18:46;;;;;;;;;;;;;;;12.71;100.00;98823.16;5449271;26;20341;-84
2024/04/23 00:21:11;;;;;;;;;;;;;;;12.76;100.00;98812.28;5435566;26;19928;-84
2024/04/23 00:23:37;;;;;;;;;;;;;;;12.78;100.00;98806.28;5454586;26;19928;-85
2024/04/23 00:26:03;;;;;;;;;;;;;;;12.86;100.00;98800.03;5438103;26;19936;-84
2024/04/23 00:28:28;;;;;;;;;;;;;;;12.88;100.00;98797.59;5447067;26;19929;-84
2024/04/23 00:30:53;;;;;;;;;;;;;;;12.87;100.00;98801.59;5453950;26;19938;-84
2024/04/23 00:33:18;;;;;;;;;;;;;;;12.88;100.00;98799.59;5449916;26;20001;-84
2024/04/23 00:35:44;;;;;;;;;;;;;;;12.90;100.00;98797.16;5434694;26;19965;-84
2024/04/23 00:38:09;;;;;;;;;;;;;;;12.86;100.00;98802.81;5430788;26;19941;-84
2024/04/23 00:40:35;;;;;;;;;;;;;;;12.90;100.00;98803.44;5440076;26;20266;-84
2024/04/23 00:43:00;;;;;;;;;;;;;;;12.87;100.00;98793.28;5423209;26;19928;-84
2024/04/23 00:45:31;;;;;;;;;;;;;;;12.83;100.00;98803.72;5453679;26;19928;-85
2024/04/23 00:47:57;;;;;;;;;;;;;;;12.84;100.00;98810.78;5430470;26;19928;-85
2024/04/23 00:50:22;;;;;;;;;;;;;;;12.87;100.00;98809.13;5437006;26;19936;-86
2024/04/23 00:52:48;;;;;;;;;;;;;;;12.84;100.00;98810.03;5447997;26;19970;-84
2024/04/23 00:55:13;;;;;;;;;;;;;;;12.90;100.00;98803.44;5437995;26;19929;-84
2024/04/23 00:57:39;;;;;;;;;;;;;;;12.93;100.00;98807.34;5423704;26;19928;-83
2024/04/23 01:00:05;;;;;;;;;;;;;;;12.91;100.00;98818.88;5436101;26;19928;-85
2024/04/23 01:02:31;;;;;;;;;;;;;;;12.89;100.00;98823.31;5422699;26;19928;-84
2024/04/23 01:04:56;;;;;;;;;;;;;;;12.93;100.00;98824.75;5454301;26;20260;-85
2024/04/23 01:07:21;;;;;;;;;;;;;;;12.91;100.00;98816.09;5454022;26;19928;-85
2024/04/23 01:09:47;;;;;;;;;;;;;;;12.85;100.00;98795.69;5436057;26;19940;-84
2024/04/23 01:12:12;;;;;;;;;;;;;;;12.79;100.00;98796.72;5447539;26;19941;-84
2024/04/23 01:14:40;;;;;;;;;;;;;;;12.77;100.00;98794.41;5453713;26;20377;-85
2024/04/23 01:17:06;;;;;;;;;;;;;;;12.78;100.00;98790.41;5454510;26;19941;-84
2024/04/23 01:19:36;;;;;;;;;;;;;;;12.73;100.00;98788.22;5437218;26;19929;-85
2024/04/23 01:22:07;;;;;;;;;;;;;;;12.74;100.00;98787.00;5418278;26;19929;-85
2024/04/23 01:24:36;;;;;;;;;;;;;;;12.78;100.00;98778.56;5417908;26;19937;-84
2024/04/23 01:27:01;;;;;;;;;;;;;;;12.88;100.00;98775.41;5426072;26;19961;-85
2024/04/23 01:29:27;;;;;;;;;;;;;;;12.99;100.00;98773.03;5433258;26;19933;-85
2024/04/23 01:31:52;;;;;;;;;;;;;;;12.99;100.00;98769.47;5425713;26;20719;-84
2024/04/23 01:34:17;;;;;;;;;;;;;;;12.96;100.00;98754.50;5453652;26;19929;-84
2024/04/23 01:36:43;;;;;;;;;;;;;;;12.98;100.00;98737.41;5429412;26;19928;-85
2024/04/23 01:39:09;;;;;;;;;;;;;;;13.02;100.00;98735.28;5454060;26;19943;-84
2024/04/23 01:41:34;;;;;;;;;;;;;;;12.99;100.00;98745.28;5445183;26;19936;-85
2024/04/23 01:43:59;;;;;;;;;;;;;;;13.11;100.00;98746.44;5437235;26;20002;-84
2024/04/23 01:46:25;;;;;;;;;;;;;;;13.11;100.00;98740.13;5421654;26;19933;-84
2024/04/23 01:48:51;;;;;;;;;;;;;;;13.12;100.00;98747.22;5417595;26;19982;-84
2024/04/23 01:51:16;;;;;;;;;;;;;;;13.16;100.00;98750.66;5441904;26;19936;-84
2024/04/23 01:53:41;;;;;;;;;;;;;;;13.20;100.00;98759.66;5417716;26;19936;-87
2024/04/23 01:56:07;;;;;;;;;;;;;;;13.24;100.00;98760.28;5448489;26;20263;-84
2024/04/23 01:58:32;;;;;;;;;;;;;;;13.26;100.00;98753.03;5453049;26;19929;-84
2024/04/23 02:00:59;;;;;;;;;;;;;;;13.28;100.00;98747.03;5429677;26;19928;-84
2024/04/23 02:03:24;;;;;;;;;;;;;;;13.21;100.00;98741.75;5434655;26;20356;-84
2024/04/23 02:05:51;;;;;;;;;;;;;;;13.22;100.00;98754.41;5394046;26;19929;-84
2024/04/23 02:08:16;;;;;;;;;;;;;;;13.19;100.00;98745.00;5417619;26;20250;-86
2024/04/23 02:10:43;;;;;;;;;;;;;;;13.17;100.00;98746.66;5448589;26;19929;-84
2024/04/23 02:13:08;;;;;;;;;;;;;;;13.17;100.00;98750.22;5433258;26;19929;-85
2024/04/23 02:15:33;;;;;;;;;;;;;;;13.12;100.00;98744.44;5441039;26;20868;-84
2024/04/23 02:17:59;;;;;;;;;;;;;;;13.12;100.00;98745.25;5434980;26;19929;-84
2024/04/23 02:20:24;;;;;;;;;;;;;;;13.13;100.00;98748.81;5446768;26;20373;-84
2024/04/23 02:22:50;;;;;;;;;;;;;;;13.10;100.00;98738.56;5434635;26;19936;-84
2024/04/23 02:25:15;;;;;;;;;;;;;;;13.11;100.00;98740.13;5453039;26;19935;-84
2024/04/23 02:27:40;;;;;;;;;;;;;;;13.10;100.00;98739.34;5452840;26;19996;-86
2024/04/23 02:30:06;;;;;;;;;;;;;;;13.05;100.00;98735.16;5423429;26;19937;-84
2024/04/23 02:32:31;;;;;;;;;;;;;;;12.93;100.00;98719.38;5417171;26;20291;-84
2024/04/23 02:34:56;;;;;;;;;;;;;;;12.89;100.00;98715.97;5440855;26;20376;-85
2024/04/23 02:37:22;;;;;;;;;;;;;;;12.78;100.00;98714.78;5434044;26;19932;-84
2024/04/23 02:39:47;;;;;;;;;;;;;;;12.68;100.00;98727.03;5428428;26;19929;-86
2024/04/23 02:42:12;;;;;;;;;;;;;;;12.70;100.00;98735.66;5435671;26;19937;-84
2024/04/23 02:44:38;;;;;;;;;;;;;;;12.75;100.00;98733.09;5445030;26;20364;-84
2024/04/23 02:47:03;;;;;;;;;;;;;;;12.78;100.00;98745.28;5435949;26;19929;-84
2024/04/23 02:49:28;;;;;;;;;;;;;;;12.73;100.00;98741.06;5416499;26;19940;-84
2024/04/23 02:51:54;;;;;;;;;;;;;;;12.68;100.00;98744.44;5432241;26;19929;-85
2024/04/23 02:54:20;;;;;;;;;;;;;;;12.75;100.00;98741.41;5448400;26;19928;-83
2024/04/23 02:56:47;;;;;;;;;;;;;;;12.77;100.00;98743.75;5416773;26;19936;-84
2024/04/23 02:59:13;;;;;;;;;;;;;;;12.79;100.00;98750.38;5420296;26;19941;-87
2024/04/23 03:01:38;;;;;;;;;;;;;;;12.79;100.00;98767.00;5451842;26;20337;-84
2024/04/23 03:04:03;;;;;;;;;;;;;;;12.77;100.00;98774.25;5423773;26;20430;-85
2024/04/23 03:06:29;;;;;;;;;;;;;;;12.85;100.00;98772.75;5431693;26;19936;-84
2024/04/23 03:08:55;;;;;;;;;;;;;;;12.83;100.00;98762.13;5452016;26;19960;-85
2024/04/23 03:11:20;;;;;;;;;;;;;;;12.85;100.00;98734.69;5437109;26;19936;-84
2024/04/23 03:13:45;;;;;;;;;;;;;;;12.89;100.00;98734.59;5442377;26;19929;-87
2024/04/23 03:16:11;;;;;;;;;;;;;;;12.84;100.00;98730.38;5436689;26;20353;-83
2024/04/23 03:18:36;;;;;;;;;;;;;;;12.84;100.00;98741.47;5442842;26;19997;-84
2024/04/23 03:21:01;;;;;;;;;;;;;;;12.83;100.00;98741.94;5453378;26;20383;-84
2024/04/23 03:23:26;;;;;;;;;;;;;;;12.88;100.00;98733.81;5450583;26;19936;-84
2024/04/23 03:25:51;;;;;;;;;;;;;;;12.89;100.00;98734.59;5440120;26;19932;-83
2024/04/23 03:28:17;;;;;;;;;;;;;;;12.84;100.00;98735.91;5418895;26;19929;-83
2024/04/23 03:30:42;;;;;;;;;;;;;;;12.87;100.00;98745.34;5419323;26;19940;-85
2024/04/23 03:33:07;;;;;;;;;;;;;;;12.93;100.00;98766.50;5446537;26;19997;-84
2024/04/23 03:35:33;;;;;;;;;;;;;;;12.95;100.00;98769.63;5454221;26;19929;-84
2024/04/23 03:37:58;;;;;;;;;;;;;;;12.98;100.00;98765.16;5430179;26;19998;-83
2024/04/23 03:40:23;;;;;;;;;;;;;;;13.05;100.00;98774.00;5431877;26;19929;-84
2024/04/23 03:42:49;;;;;;;;;;;;;;;12.98;100.00;98792.88;5431116;26;19936;-84
2024/04/23 03:56:47;;;;;;;;;;;;;;;13.13;100.00;98795.97;5624534;25;19934;-74
2024/04/23 03:59:14;;;;;;;;;;;;;;;13.20;100.00;98787.38;5589396;25;20345;-75
2024/04/23 04:01:40;;;;;;;;;;;;;;;13.14;100.00;98778.84;5588592;25;20266;-74
2024/04/23 04:06:49;;;;;;;;;;;;;;;12.99;100.00;98772.25;5622603;25;19933;-74
2024/04/23 04:09:14;;;;;;;;;;;;;;;13.06;100.00;98783.09;5589074;25;19926;-76
2024/04/23 04:11:39;;;;;;;;;;;;;;;13.03;100.00;98793.06;5589115;25;20009;-75
2024/04/23 04:14:05;;;;;;;;;;;;;;;13.02;100.00;98788.75;5589166;25;19953;-77
2024/04/23 04:16:30;;;;;;;;;;;;;;;13.09;100.00;98786.94;5588618;25;19926;-74
2024/04/23 04:18:55;;;;;;;;;;;;;;;13.09;100.00;98784.19;5588583;25;19934;-78
2024/04/23 04:21:21;;;;;;;;;;;;;;;12.95;100.00;98791.81;5570653;25;19939;-75
2024/04/23 04:23:46;;;;;;;;;;;;;;;12.97;100.00;98772.69;5589903;25;20356;-79
2024/04/23 04:26:13;;;;;;;;;;;;;;;12.91;100.00;98766.19;5589699;25;19926;-77
2024/04/23 04:28:39;;;;;;;;;;;;;;;12.88;100.00;98772.63;5589425;25;19994;-81
2024/04/23 04:31:04;;;;;;;;;;;;;;;12.87;100.00;98762.00;5571219;25;19938;-76
2024/04/23 04:33:29;;;;;;;;;;;;;;;12.89;100.00;98745.69;5582464;25;19926;-77
2024/04/23 04:35:56;;;;;;;;;;;;;;;12.93;100.00;98758.19;5589523;25;19933;-78
2024/04/23 04:38:21;;;;;;;;;;;;;;;12.82;100.00;98766.13;5589222;25;20381;-77
2024/04/23 04:40:47;;;;;;;;;;;;;;;12.78;100.00;98782.09;5589469;25;19938;-78
2024/04/23 04:43:13;;;;;;;;;;;;;;;12.69;100.00;98787.56;5588129;25;19934;-77
2024/04/23 04:45:39;;;;;;;;;;;;;;;12.76;100.00;98786.53;5575425;25;19939;-77
2024/04/23 04:48:04;;;;;;;;;;;;;;;12.83;100.00;98800.16;5550895;25;20009;-76
2024/04/23 04:50:30;;;;;;;;;;;;;;;12.74;100.00;98800.84;5520193;25;19927;-76
2024/04/23 04:52:55;;;;;;;;;;;;;;;12.68;100.00;98788.78;5584021;25;19933;-77
2024/04/23 04:55:21;;;;;;;;;;;;;;;12.66;100.00;98777.34;5523409;25;19935;-78
2024/04/23 04:57:46;;;;;;;;;;;;;;;12.69;100.00;98779.25;5491776;26;19935;-77
2024/04/23 05:00:12;;;;;;;;;;;;;;;12.68;100.00;98774.16;5492180;26;19936;-78
2024/04/23 05:02:37;;;;;;;;;;;;;;;12.58;100.00;98765.75;5491661;26;19935;-77
2024/04/23 05:05:03;;;;;;;;;;;;;;;12.63;100.00;98758.88;5493595;26;19932;-78
2024/04/23 05:07:28;;;;;;;;;;;;;;;12.70;100.00;98780.81;5491223;26;20267;-77
2024/04/23 05:09:54;;;;;;;;;;;;;;;12.74;100.00;98783.44;5493557;26;19934;-78
2024/04/23 05:12:19;;;;;;;;;;;;;;;12.85;100.00;98781.84;5467559;26;19928;-76
2024/04/23 05:14:45;;;;;;;;;;;;;;;12.88;100.00;98777.41;5492374;26;20251;-77
2024/04/23 05:17:10;;;;;;;;;;;;;;;12.74;100.00;98777.91;5466804;26;19935;-77
2024/04/23 05:19:35;;;;;;;;;;;;;;;12.79;100.00;98786.41;5492096;26;19929;-78
2024/04/23 05:22:01;;;;;;;;;;;;;;;12.78;100.00;98784.84;5460823;26;19928;-77
2024/04/23 05:24:26;;;;;;;;;;;;;;;12.70;100.00;98789.13;5477111;26;19928;-76
2024/04/23 05:26:54;;;;;;;;;;;;;;;12.68;100.00;98797.09;5461650;26;19939;-76
2024/04/23 05:29:19;;;;;;;;;;;;;;;12.73;100.00;98790.97;5491965;26;19928;-76
2024/04/23 05:34:30;;;;;;;;;;;;;;;12.73;100.00;98784.66;5493167;26;20261;-77
2024/04/23 05:36:55;;;;;;;;;;;;;;;12.74;100.00;98784.22;5490508;26;19928;-77
2024/04/23 05:39:22;;;;;;;;;;;;;;;12.76;100.00;98787.31;5491064;26;19996;-78
2024/04/23 05:41:47;;;;;;;;;;;;;;;12.76;100.00;98772.69;5459343;26;19928;-78
2024/04/23 05:44:12;;;;;;;;;;;;;;;12.80;100.00;98776.88;5474737;26;20367;-77
2024/04/23 05:46:38;;;;;;;;;;;;;;;12.67;100.00;98772.59;5485887;26;20269;-77
2024/04/23 05:49:22;;;;;;;;;;;;;;;12.56;100.00;98778.50;5478916;26;20429;-75
2024/04/23 05:52:07;;;;;;;;;;;;;;;12.53;100.00;98790.50;5490158;26;19992;-74
2024/04/23 05:54:52;;;;;;;;;;;;;;;12.45;100.00;98761.47;5500030;25;20016;-79
2024/04/23 05:57:31;;;;;;;;;;;;;;;12.42;100.00;98765.13;5492835;26;20004;-77
2024/04/23 06:00:07;;;;;;;;;;;;;;;12.50;100.00;98755.34;5477904;26;19935;-79
2024/04/23 06:03:12;;;;;;;;;;;;;;;12.58;100.00;98754.69;5540215;25;19936;-78
2024/04/23 06:05:59;;;;;;;;;;;;;;;12.43;100.00;98725.09;5478880;26;19938;-76
2024/04/23 06:08:26;;;;;;;;;;;;;;;12.52;100.00;98716.88;5480213;26;20355;-77
2024/04/23 06:10:53;;;;;;;;;;;;;;;12.53;100.00;98730.31;5492259;26;20368;-78
2024/04/23 06:13:19;;;;;;;;;;;;;;;12.60;100.00;98729.25;5445379;26;20366;-76
